sensor_id;sensor_type;location;lat;lon;timestamp;temperature;humidity
47813;DHT22;34221;45.296;9.516;2023-03-01T00:00:12;6.50;80.70
47813;DHT22;34221;45.296;9.516;2023-03-01T00:00:27;6.50;80.40
47813;DHT22;34221;45.296;9.516;2023-03-01T00:00:42;6.50;80.40
47813;DHT22;34221;45.296;9.516;2023-03-01T00:01:06;6.50;80.80
47813;DHT22;34221;45.296;9.516;2023-03-01T00:01:26;6.50;81.10
47813;DHT22;34221;45.296;9.516;2023-03-01T00:01:43;6.50;80.50
47813;DHT22;34221;45.296;9.516;2023-03-01T00:01:58;6.50;80.20
47813;DHT22;34221;45.296;9.516;2023-03-01T00:02:13;6.50;80.30
47813;DHT22;34221;45.296;9.516;2023-03-01T00:02:27;6.50;80.90
47813;DHT22;34221;45.296;9.516;2023-03-01T00:02:42;6.50;80.90
47813;DHT22;34221;45.296;9.516;2023-03-01T00:02:57;6.50;80.80
47813;DHT22;34221;45.296;9.516;2023-03-01T00:03:12;6.50;80.40
47813;DHT22;34221;45.296;9.516;2023-03-01T00:03:30;6.50;80.30
47813;DHT22;34221;45.296;9.516;2023-03-01T00:03:46;6.50;79.90
47813;DHT22;34221;45.296;9.516;2023-03-01T00:04:01;6.50;79.30
47813;DHT22;34221;45.296;9.516;2023-03-01T00:04:16;6.60;79.40
47813;DHT22;34221;45.296;9.516;2023-03-01T00:04:56;6.50;79.60
47813;DHT22;34221;45.296;9.516;2023-03-01T00:05:11;6.50;79.50
47813;DHT22;34221;45.296;9.516;2023-03-01T00:05:27;6.50;78.70
47813;DHT22;34221;45.296;9.516;2023-03-01T00:05:46;6.60;78.60
47813;DHT22;34221;45.296;9.516;2023-03-01T00:06:02;6.60;79.10
47813;DHT22;34221;45.296;9.516;2023-03-01T00:06:38;6.50;79.00
47813;DHT22;34221;45.296;9.516;2023-03-01T00:06:53;6.60;79.40
47813;DHT22;34221;45.296;9.516;2023-03-01T00:07:08;6.60;79.90
47813;DHT22;34221;45.296;9.516;2023-03-01T00:07:23;6.60;79.90
47813;DHT22;34221;45.296;9.516;2023-03-01T00:07:38;6.60;80.10
47813;DHT22;34221;45.296;9.516;2023-03-01T00:07:53;6.60;79.70
47813;DHT22;34221;45.296;9.516;2023-03-01T00:08:08;6.60;79.30
47813;DHT22;34221;45.296;9.516;2023-03-01T00:08:24;6.60;80.70
47813;DHT22;34221;45.296;9.516;2023-03-01T00:08:39;6.60;80.00
47813;DHT22;34221;45.296;9.516;2023-03-01T00:08:54;6.60;79.30
47813;DHT22;34221;45.296;9.516;2023-03-01T00:09:09;6.60;78.40
47813;DHT22;34221;45.296;9.516;2023-03-01T00:09:24;6.60;78.80
47813;DHT22;34221;45.296;9.516;2023-03-01T00:09:39;6.60;78.60
47813;DHT22;34221;45.296;9.516;2023-03-01T00:09:54;6.60;78.50
47813;DHT22;34221;45.296;9.516;2023-03-01T00:10:10;6.60;79.10
47813;DHT22;34221;45.296;9.516;2023-03-01T00:10:25;6.60;79.30
47813;DHT22;34221;45.296;9.516;2023-03-01T00:10:41;6.60;79.70
47813;DHT22;34221;45.296;9.516;2023-03-01T00:11:04;6.60;79.80
47813;DHT22;34221;45.296;9.516;2023-03-01T00:11:25;6.60;80.10
47813;DHT22;34221;45.296;9.516;2023-03-01T00:11:41;6.60;80.70
47813;DHT22;34221;45.296;9.516;2023-03-01T00:11:56;6.60;80.10
47813;DHT22;34221;45.296;9.516;2023-03-01T00:12:11;6.60;79.40
47813;DHT22;34221;45.296;9.516;2023-03-01T00:12:26;6.60;79.60
47813;DHT22;34221;45.296;9.516;2023-03-01T00:12:42;6.60;79.20
47813;DHT22;34221;45.296;9.516;2023-03-01T00:12:57;6.60;79.70
47813;DHT22;34221;45.296;9.516;2023-03-01T00:13:12;6.60;80.00
47813;DHT22;34221;45.296;9.516;2023-03-01T00:13:27;6.60;78.80
47813;DHT22;34221;45.296;9.516;2023-03-01T00:13:43;6.60;78.80
47813;DHT22;34221;45.296;9.516;2023-03-01T00:14:00;6.60;78.20
47813;DHT22;34221;45.296;9.516;2023-03-01T00:14:16;6.60;78.60
47813;DHT22;34221;45.296;9.516;2023-03-01T00:14:32;6.60;78.80
47813;DHT22;34221;45.296;9.516;2023-03-01T00:14:46;6.60;79.70
47813;DHT22;34221;45.296;9.516;2023-03-01T00:15:02;6.60;80.10
47813;DHT22;34221;45.296;9.516;2023-03-01T00:15:19;6.60;79.70
47813;DHT22;34221;45.296;9.516;2023-03-01T00:15:38;6.60;80.00
47813;DHT22;34221;45.296;9.516;2023-03-01T00:15:54;6.60;79.30
47813;DHT22;34221;45.296;9.516;2023-03-01T00:16:31;6.60;79.10
47813;DHT22;34221;45.296;9.516;2023-03-01T00:16:48;6.60;79.80
47813;DHT22;34221;45.296;9.516;2023-03-01T00:17:03;6.60;79.30
47813;DHT22;34221;45.296;9.516;2023-03-01T00:17:17;6.60;79.00
47813;DHT22;34221;45.296;9.516;2023-03-01T00:17:32;6.60;78.20
47813;DHT22;34221;45.296;9.516;2023-03-01T00:17:47;6.60;78.50
47813;DHT22;34221;45.296;9.516;2023-03-01T00:18:02;6.60;78.90
47813;DHT22;34221;45.296;9.516;2023-03-01T00:18:17;6.60;79.50
47813;DHT22;34221;45.296;9.516;2023-03-01T00:18:32;6.60;79.40
47813;DHT22;34221;45.296;9.516;2023-03-01T00:18:47;6.60;79.00
47813;DHT22;34221;45.296;9.516;2023-03-01T00:19:03;6.60;79.30
47813;DHT22;34221;45.296;9.516;2023-03-01T00:19:19;6.60;78.90
47813;DHT22;34221;45.296;9.516;2023-03-01T00:19:34;6.60;79.00
47813;DHT22;34221;45.296;9.516;2023-03-01T00:19:49;6.60;79.30
47813;DHT22;34221;45.296;9.516;2023-03-01T00:20:04;6.60;78.60
47813;DHT22;34221;45.296;9.516;2023-03-01T00:20:24;6.60;79.00
47813;DHT22;34221;45.296;9.516;2023-03-01T00:20:39;6.60;79.50
47813;DHT22;34221;45.296;9.516;2023-03-01T00:20:55;6.60;79.10
47813;DHT22;34221;45.296;9.516;2023-03-01T00:21:10;6.60;78.60
47813;DHT22;34221;45.296;9.516;2023-03-01T00:21:26;6.60;78.60
47813;DHT22;34221;45.296;9.516;2023-03-01T00:21:42;6.60;79.00
47813;DHT22;34221;45.296;9.516;2023-03-01T00:21:57;6.60;78.80
47813;DHT22;34221;45.296;9.516;2023-03-01T00:22:12;6.60;79.10
47813;DHT22;34221;45.296;9.516;2023-03-01T00:22:27;6.60;79.30
47813;DHT22;34221;45.296;9.516;2023-03-01T00:22:45;6.60;79.70
47813;DHT22;34221;45.296;9.516;2023-03-01T00:23:00;6.60;79.50
47813;DHT22;34221;45.296;9.516;2023-03-01T00:23:15;6.60;79.80
47813;DHT22;34221;45.296;9.516;2023-03-01T00:23:29;6.60;79.40
47813;DHT22;34221;45.296;9.516;2023-03-01T00:23:44;6.70;79.60
47813;DHT22;34221;45.296;9.516;2023-03-01T00:23:59;6.60;79.40
47813;DHT22;34221;45.296;9.516;2023-03-01T00:24:14;6.70;79.50
47813;DHT22;34221;45.296;9.516;2023-03-01T00:24:29;6.70;79.60
47813;DHT22;34221;45.296;9.516;2023-03-01T00:24:44;6.70;79.70
47813;DHT22;34221;45.296;9.516;2023-03-01T00:24:59;6.70;79.50
47813;DHT22;34221;45.296;9.516;2023-03-01T00:25:14;6.70;79.80
47813;DHT22;34221;45.296;9.516;2023-03-01T00:25:29;6.70;79.10
47813;DHT22;34221;45.296;9.516;2023-03-01T00:25:44;6.70;79.20
47813;DHT22;34221;45.296;9.516;2023-03-01T00:25:59;6.60;79.00
47813;DHT22;34221;45.296;9.516;2023-03-01T00:26:15;6.60;78.80
47813;DHT22;34221;45.296;9.516;2023-03-01T00:26:31;6.70;79.40
47813;DHT22;34221;45.296;9.516;2023-03-01T00:26:46;6.70;78.80
47813;DHT22;34221;45.296;9.516;2023-03-01T00:27:01;6.60;78.60
47813;DHT22;34221;45.296;9.516;2023-03-01T00:27:16;6.60;79.30
47813;DHT22;34221;45.296;9.516;2023-03-01T00:27:31;6.60;79.70
47813;DHT22;34221;45.296;9.516;2023-03-01T00:27:46;6.70;79.50
47813;DHT22;34221;45.296;9.516;2023-03-01T00:28:03;6.60;79.40
47813;DHT22;34221;45.296;9.516;2023-03-01T00:28:18;6.70;79.20
47813;DHT22;34221;45.296;9.516;2023-03-01T00:28:34;6.60;79.30
47813;DHT22;34221;45.296;9.516;2023-03-01T00:28:50;6.70;79.40
47813;DHT22;34221;45.296;9.516;2023-03-01T00:29:06;6.70;79.00
47813;DHT22;34221;45.296;9.516;2023-03-01T00:29:22;6.70;78.40
47813;DHT22;34221;45.296;9.516;2023-03-01T00:29:38;6.70;78.20
47813;DHT22;34221;45.296;9.516;2023-03-01T00:29:53;6.70;78.20
47813;DHT22;34221;45.296;9.516;2023-03-01T00:30:08;6.70;78.60
47813;DHT22;34221;45.296;9.516;2023-03-01T00:30:24;6.70;79.20
47813;DHT22;34221;45.296;9.516;2023-03-01T00:30:39;6.70;79.20
47813;DHT22;34221;45.296;9.516;2023-03-01T00:30:54;6.70;78.80
47813;DHT22;34221;45.296;9.516;2023-03-01T00:31:12;6.70;79.00
47813;DHT22;34221;45.296;9.516;2023-03-01T00:31:30;6.70;79.50
47813;DHT22;34221;45.296;9.516;2023-03-01T00:31:47;6.70;80.00
47813;DHT22;34221;45.296;9.516;2023-03-01T00:32:02;6.70;78.50
47813;DHT22;34221;45.296;9.516;2023-03-01T00:32:17;6.70;78.60
47813;DHT22;34221;45.296;9.516;2023-03-01T00:32:32;6.70;79.20
47813;DHT22;34221;45.296;9.516;2023-03-01T00:32:47;6.70;79.60
47813;DHT22;34221;45.296;9.516;2023-03-01T00:33:02;6.70;78.70
47813;DHT22;34221;45.296;9.516;2023-03-01T00:33:17;6.70;78.80
47813;DHT22;34221;45.296;9.516;2023-03-01T00:33:32;6.70;79.00
47813;DHT22;34221;45.296;9.516;2023-03-01T00:33:47;6.70;79.00
47813;DHT22;34221;45.296;9.516;2023-03-01T00:34:04;6.70;78.50
47813;DHT22;34221;45.296;9.516;2023-03-01T00:34:19;6.70;78.80
47813;DHT22;34221;45.296;9.516;2023-03-01T00:34:35;6.70;78.80
47813;DHT22;34221;45.296;9.516;2023-03-01T00:34:50;6.70;78.90
47813;DHT22;34221;45.296;9.516;2023-03-01T00:35:10;6.70;78.20
47813;DHT22;34221;45.296;9.516;2023-03-01T00:35:25;6.70;78.70
47813;DHT22;34221;45.296;9.516;2023-03-01T00:35:39;6.70;79.00
47813;DHT22;34221;45.296;9.516;2023-03-01T00:35:57;6.60;79.30
47813;DHT22;34221;45.296;9.516;2023-03-01T00:36:14;6.70;79.50
47813;DHT22;34221;45.296;9.516;2023-03-01T00:36:35;6.60;78.80
47813;DHT22;34221;45.296;9.516;2023-03-01T00:36:51;6.70;79.20
47813;DHT22;34221;45.296;9.516;2023-03-01T00:37:06;6.70;79.40
47813;DHT22;34221;45.296;9.516;2023-03-01T00:37:22;6.70;79.20
47813;DHT22;34221;45.296;9.516;2023-03-01T00:37:37;6.60;78.80
47813;DHT22;34221;45.296;9.516;2023-03-01T00:37:52;6.70;78.80
47813;DHT22;34221;45.296;9.516;2023-03-01T00:38:12;6.70;79.30
47813;DHT22;34221;45.296;9.516;2023-03-01T00:38:27;6.70;79.00
47813;DHT22;34221;45.296;9.516;2023-03-01T00:38:44;6.70;79.20
47813;DHT22;34221;45.296;9.516;2023-03-01T00:38:59;6.70;79.20
47813;DHT22;34221;45.296;9.516;2023-03-01T00:39:15;6.70;78.90
47813;DHT22;34221;45.296;9.516;2023-03-01T00:39:31;6.70;79.30
47813;DHT22;34221;45.296;9.516;2023-03-01T00:39:47;6.70;79.50
47813;DHT22;34221;45.296;9.516;2023-03-01T00:40:04;6.70;78.90
47813;DHT22;34221;45.296;9.516;2023-03-01T00:40:20;6.70;79.40
47813;DHT22;34221;45.296;9.516;2023-03-01T00:40:36;6.70;79.10
47813;DHT22;34221;45.296;9.516;2023-03-01T00:40:51;6.70;78.80
47813;DHT22;34221;45.296;9.516;2023-03-01T00:41:15;6.70;79.70
47813;DHT22;34221;45.296;9.516;2023-03-01T00:41:31;6.70;79.40
47813;DHT22;34221;45.296;9.516;2023-03-01T00:41:46;6.70;79.00
47813;DHT22;34221;45.296;9.516;2023-03-01T00:42:01;6.70;79.00
47813;DHT22;34221;45.296;9.516;2023-03-01T00:42:16;6.70;79.00
47813;DHT22;34221;45.296;9.516;2023-03-01T00:42:31;6.70;78.40
47813;DHT22;34221;45.296;9.516;2023-03-01T00:42:46;6.60;77.80
47813;DHT22;34221;45.296;9.516;2023-03-01T00:43:02;6.60;76.80
47813;DHT22;34221;45.296;9.516;2023-03-01T00:43:18;6.60;76.10
47813;DHT22;34221;45.296;9.516;2023-03-01T00:43:33;6.60;75.90
47813;DHT22;34221;45.296;9.516;2023-03-01T00:43:51;6.60;75.80
47813;DHT22;34221;45.296;9.516;2023-03-01T00:44:06;6.60;75.80
47813;DHT22;34221;45.296;9.516;2023-03-01T00:44:21;6.50;75.70
47813;DHT22;34221;45.296;9.516;2023-03-01T00:44:35;6.50;76.00
47813;DHT22;34221;45.296;9.516;2023-03-01T00:44:50;6.50;77.00
47813;DHT22;34221;45.296;9.516;2023-03-01T00:45:06;6.60;78.00
47813;DHT22;34221;45.296;9.516;2023-03-01T00:45:22;6.50;78.10
47813;DHT22;34221;45.296;9.516;2023-03-01T00:45:37;6.50;78.50
47813;DHT22;34221;45.296;9.516;2023-03-01T00:45:52;6.60;78.70
47813;DHT22;34221;45.296;9.516;2023-03-01T00:46:13;6.60;78.00
47813;DHT22;34221;45.296;9.516;2023-03-01T00:46:29;6.60;78.10
47813;DHT22;34221;45.296;9.516;2023-03-01T00:46:44;6.50;78.80
47813;DHT22;34221;45.296;9.516;2023-03-01T00:46:59;6.60;77.90
47813;DHT22;34221;45.296;9.516;2023-03-01T00:47:14;6.60;77.80
47813;DHT22;34221;45.296;9.516;2023-03-01T00:47:29;6.60;77.50
47813;DHT22;34221;45.296;9.516;2023-03-01T00:47:44;6.50;76.90
47813;DHT22;34221;45.296;9.516;2023-03-01T00:47:59;6.50;76.60
47813;DHT22;34221;45.296;9.516;2023-03-01T00:48:14;6.50;76.40
47813;DHT22;34221;45.296;9.516;2023-03-01T00:48:29;6.50;77.00
47813;DHT22;34221;45.296;9.516;2023-03-01T00:48:45;6.50;77.80
47813;DHT22;34221;45.296;9.516;2023-03-01T00:49:00;6.50;77.30
47813;DHT22;34221;45.296;9.516;2023-03-01T00:49:16;6.40;76.90
47813;DHT22;34221;45.296;9.516;2023-03-01T00:49:31;6.50;77.10
47813;DHT22;34221;45.296;9.516;2023-03-01T00:49:46;6.40;76.20
47813;DHT22;34221;45.296;9.516;2023-03-01T00:50:01;6.40;76.20
47813;DHT22;34221;45.296;9.516;2023-03-01T00:50:17;6.40;76.30
47813;DHT22;34221;45.296;9.516;2023-03-01T00:50:32;6.40;76.40
47813;DHT22;34221;45.296;9.516;2023-03-01T00:50:47;6.40;76.40
47813;DHT22;34221;45.296;9.516;2023-03-01T00:51:20;6.40;77.00
47813;DHT22;34221;45.296;9.516;2023-03-01T00:51:36;6.40;78.10
47813;DHT22;34221;45.296;9.516;2023-03-01T00:51:51;6.40;78.30
47813;DHT22;34221;45.296;9.516;2023-03-01T00:52:06;6.40;78.20
47813;DHT22;34221;45.296;9.516;2023-03-01T00:52:20;6.40;78.20
47813;DHT22;34221;45.296;9.516;2023-03-01T00:52:36;6.40;78.50
47813;DHT22;34221;45.296;9.516;2023-03-01T00:52:55;6.40;78.50
47813;DHT22;34221;45.296;9.516;2023-03-01T00:53:10;6.40;78.20
47813;DHT22;34221;45.296;9.516;2023-03-01T00:53:25;6.40;78.60
47813;DHT22;34221;45.296;9.516;2023-03-01T00:53:41;6.40;79.20
47813;DHT22;34221;45.296;9.516;2023-03-01T00:53:59;6.40;78.50
47813;DHT22;34221;45.296;9.516;2023-03-01T00:54:15;6.40;78.70
47813;DHT22;34221;45.296;9.516;2023-03-01T00:54:30;6.40;78.70
47813;DHT22;34221;45.296;9.516;2023-03-01T00:54:45;6.40;78.90
47813;DHT22;34221;45.296;9.516;2023-03-01T00:55:01;6.40;78.80
47813;DHT22;34221;45.296;9.516;2023-03-01T00:55:16;6.40;78.50
47813;DHT22;34221;45.296;9.516;2023-03-01T00:55:51;6.40;79.10
47813;DHT22;34221;45.296;9.516;2023-03-01T00:56:08;6.40;78.00
47813;DHT22;34221;45.296;9.516;2023-03-01T00:56:24;6.40;78.30
47813;DHT22;34221;45.296;9.516;2023-03-01T00:56:39;6.40;78.50
47813;DHT22;34221;45.296;9.516;2023-03-01T00:56:54;6.40;78.70
47813;DHT22;34221;45.296;9.516;2023-03-01T00:57:09;6.40;78.80
47813;DHT22;34221;45.296;9.516;2023-03-01T00:57:24;6.50;78.80
47813;DHT22;34221;45.296;9.516;2023-03-01T00:57:39;6.50;78.80
47813;DHT22;34221;45.296;9.516;2023-03-01T00:57:55;6.50;79.00
47813;DHT22;34221;45.296;9.516;2023-03-01T00:58:10;6.50;79.00
47813;DHT22;34221;45.296;9.516;2023-03-01T00:58:25;6.50;79.00
47813;DHT22;34221;45.296;9.516;2023-03-01T00:58:41;6.50;78.80
47813;DHT22;34221;45.296;9.516;2023-03-01T00:58:56;6.50;78.60
47813;DHT22;34221;45.296;9.516;2023-03-01T00:59:11;6.50;78.60
47813;DHT22;34221;45.296;9.516;2023-03-01T00:59:27;6.50;78.10
47813;DHT22;34221;45.296;9.516;2023-03-01T00:59:42;6.50;77.80
47813;DHT22;34221;45.296;9.516;2023-03-01T00:59:57;6.50;77.50
47813;DHT22;34221;45.296;9.516;2023-03-01T01:00:14;6.50;77.90
47813;DHT22;34221;45.296;9.516;2023-03-01T01:00:29;6.40;78.20
47813;DHT22;34221;45.296;9.516;2023-03-01T01:00:44;6.50;78.20
47813;DHT22;34221;45.296;9.516;2023-03-01T01:00:59;6.50;77.50
47813;DHT22;34221;45.296;9.516;2023-03-01T01:01:20;6.50;77.60
47813;DHT22;34221;45.296;9.516;2023-03-01T01:01:37;6.50;77.50
47813;DHT22;34221;45.296;9.516;2023-03-01T01:01:52;6.50;77.70
47813;DHT22;34221;45.296;9.516;2023-03-01T01:02:07;6.50;78.00
47813;DHT22;34221;45.296;9.516;2023-03-01T01:02:22;6.50;77.80
47813;DHT22;34221;45.296;9.516;2023-03-01T01:02:37;6.50;78.30
47813;DHT22;34221;45.296;9.516;2023-03-01T01:02:52;6.50;78.20
47813;DHT22;34221;45.296;9.516;2023-03-01T01:03:07;6.50;78.00
47813;DHT22;34221;45.296;9.516;2023-03-01T01:03:23;6.50;78.10
47813;DHT22;34221;45.296;9.516;2023-03-01T01:03:39;6.50;78.50
47813;DHT22;34221;45.296;9.516;2023-03-01T01:04:00;6.60;78.80
47813;DHT22;34221;45.296;9.516;2023-03-01T01:04:16;6.50;78.20
47813;DHT22;34221;45.296;9.516;2023-03-01T01:04:31;6.50;77.40
47813;DHT22;34221;45.296;9.516;2023-03-01T01:04:46;6.50;77.80
47813;DHT22;34221;45.296;9.516;2023-03-01T01:05:01;6.50;77.30
47813;DHT22;34221;45.296;9.516;2023-03-01T01:05:17;6.50;77.50
47813;DHT22;34221;45.296;9.516;2023-03-01T01:05:35;6.50;77.90
47813;DHT22;34221;45.296;9.516;2023-03-01T01:05:51;6.50;78.10
47813;DHT22;34221;45.296;9.516;2023-03-01T01:06:13;6.50;77.80
47813;DHT22;34221;45.296;9.516;2023-03-01T01:06:45;6.50;77.90
47813;DHT22;34221;45.296;9.516;2023-03-01T01:07:01;6.50;78.60
47813;DHT22;34221;45.296;9.516;2023-03-01T01:07:16;6.50;78.70
47813;DHT22;34221;45.296;9.516;2023-03-01T01:07:31;6.50;78.10
47813;DHT22;34221;45.296;9.516;2023-03-01T01:07:47;6.50;78.10
47813;DHT22;34221;45.296;9.516;2023-03-01T01:08:02;6.50;77.90
47813;DHT22;34221;45.296;9.516;2023-03-01T01:08:18;6.50;77.90
47813;DHT22;34221;45.296;9.516;2023-03-01T01:08:34;6.50;77.30
47813;DHT22;34221;45.296;9.516;2023-03-01T01:08:50;6.50;77.10
47813;DHT22;34221;45.296;9.516;2023-03-01T01:09:06;6.50;77.20
47813;DHT22;34221;45.296;9.516;2023-03-01T01:09:21;6.50;77.80
47813;DHT22;34221;45.296;9.516;2023-03-01T01:09:36;6.50;77.30
47813;DHT22;34221;45.296;9.516;2023-03-01T01:09:51;6.50;77.50
47813;DHT22;34221;45.296;9.516;2023-03-01T01:10:06;6.50;77.70
47813;DHT22;34221;45.296;9.516;2023-03-01T01:10:22;6.50;77.50
47813;DHT22;34221;45.296;9.516;2023-03-01T01:10:37;6.40;76.90
47813;DHT22;34221;45.296;9.516;2023-03-01T01:10:52;6.40;76.90
47813;DHT22;34221;45.296;9.516;2023-03-01T01:11:09;6.40;77.60
47813;DHT22;34221;45.296;9.516;2023-03-01T01:11:27;6.40;77.70
47813;DHT22;34221;45.296;9.516;2023-03-01T01:11:48;6.50;77.80
47813;DHT22;34221;45.296;9.516;2023-03-01T01:12:05;6.50;78.40
47813;DHT22;34221;45.296;9.516;2023-03-01T01:12:20;6.50;78.90
47813;DHT22;34221;45.296;9.516;2023-03-01T01:12:35;6.50;78.20
47813;DHT22;34221;45.296;9.516;2023-03-01T01:12:50;6.50;78.40
47813;DHT22;34221;45.296;9.516;2023-03-01T01:13:05;6.50;78.30
47813;DHT22;34221;45.296;9.516;2023-03-01T01:13:20;6.50;78.20
47813;DHT22;34221;45.296;9.516;2023-03-01T01:13:38;6.50;77.80
47813;DHT22;34221;45.296;9.516;2023-03-01T01:13:54;6.50;76.90
47813;DHT22;34221;45.296;9.516;2023-03-01T01:14:09;6.50;76.50
47813;DHT22;34221;45.296;9.516;2023-03-01T01:14:24;6.50;76.20
47813;DHT22;34221;45.296;9.516;2023-03-01T01:14:39;6.50;76.10
47813;DHT22;34221;45.296;9.516;2023-03-01T01:14:54;6.50;76.00
47813;DHT22;34221;45.296;9.516;2023-03-01T01:15:09;6.50;76.00
47813;DHT22;34221;45.296;9.516;2023-03-01T01:15:26;6.50;76.00
47813;DHT22;34221;45.296;9.516;2023-03-01T01:15:41;6.50;75.60
47813;DHT22;34221;45.296;9.516;2023-03-01T01:16:01;6.50;75.80
47813;DHT22;34221;45.296;9.516;2023-03-01T01:16:18;6.50;75.80
47813;DHT22;34221;45.296;9.516;2023-03-01T01:16:33;6.40;75.60
47813;DHT22;34221;45.296;9.516;2023-03-01T01:16:49;6.40;75.60
47813;DHT22;34221;45.296;9.516;2023-03-01T01:17:05;6.40;75.60
47813;DHT22;34221;45.296;9.516;2023-03-01T01:17:20;6.40;75.70
47813;DHT22;34221;45.296;9.516;2023-03-01T01:17:35;6.40;75.90
47813;DHT22;34221;45.296;9.516;2023-03-01T01:17:50;6.40;75.90
47813;DHT22;34221;45.296;9.516;2023-03-01T01:18:05;6.40;76.00
47813;DHT22;34221;45.296;9.516;2023-03-01T01:18:20;6.40;76.00
47813;DHT22;34221;45.296;9.516;2023-03-01T01:18:36;6.40;76.60
47813;DHT22;34221;45.296;9.516;2023-03-01T01:18:51;6.40;76.10
47813;DHT22;34221;45.296;9.516;2023-03-01T01:19:06;6.40;76.10
47813;DHT22;34221;45.296;9.516;2023-03-01T01:19:22;6.40;76.10
47813;DHT22;34221;45.296;9.516;2023-03-01T01:19:37;6.30;76.20
47813;DHT22;34221;45.296;9.516;2023-03-01T01:19:52;6.40;76.40
47813;DHT22;34221;45.296;9.516;2023-03-01T01:20:08;6.30;76.40
47813;DHT22;34221;45.296;9.516;2023-03-01T01:20:23;6.30;76.30
47813;DHT22;34221;45.296;9.516;2023-03-01T01:20:38;6.30;76.50
47813;DHT22;34221;45.296;9.516;2023-03-01T01:20:53;6.30;76.50
47813;DHT22;34221;45.296;9.516;2023-03-01T01:21:14;6.30;76.50
47813;DHT22;34221;45.296;9.516;2023-03-01T01:21:30;6.30;76.50
47813;DHT22;34221;45.296;9.516;2023-03-01T01:21:46;6.30;76.50
47813;DHT22;34221;45.296;9.516;2023-03-01T01:22:02;6.30;76.70
47813;DHT22;34221;45.296;9.516;2023-03-01T01:22:18;6.30;76.50
47813;DHT22;34221;45.296;9.516;2023-03-01T01:22:33;6.30;76.50
47813;DHT22;34221;45.296;9.516;2023-03-01T01:22:47;6.30;76.30
47813;DHT22;34221;45.296;9.516;2023-03-01T01:23:05;6.30;76.30
47813;DHT22;34221;45.296;9.516;2023-03-01T01:23:21;6.20;76.40
47813;DHT22;34221;45.296;9.516;2023-03-01T01:23:37;6.20;76.60
47813;DHT22;34221;45.296;9.516;2023-03-01T01:23:55;6.20;76.90
47813;DHT22;34221;45.296;9.516;2023-03-01T01:24:10;6.20;77.00
47813;DHT22;34221;45.296;9.516;2023-03-01T01:24:25;6.20;77.00
47813;DHT22;34221;45.296;9.516;2023-03-01T01:24:41;6.20;76.80
47813;DHT22;34221;45.296;9.516;2023-03-01T01:24:56;6.20;76.70
47813;DHT22;34221;45.296;9.516;2023-03-01T01:25:11;6.20;76.70
47813;DHT22;34221;45.296;9.516;2023-03-01T01:25:26;6.20;76.70
47813;DHT22;34221;45.296;9.516;2023-03-01T01:25:41;6.20;76.70
47813;DHT22;34221;45.296;9.516;2023-03-01T01:25:56;6.20;76.70
47813;DHT22;34221;45.296;9.516;2023-03-01T01:26:13;6.20;76.80
47813;DHT22;34221;45.296;9.516;2023-03-01T01:26:32;6.20;76.80
47813;DHT22;34221;45.296;9.516;2023-03-01T01:26:47;6.20;76.70
47813;DHT22;34221;45.296;9.516;2023-03-01T01:27:02;6.20;76.80
47813;DHT22;34221;45.296;9.516;2023-03-01T01:27:17;6.20;76.70
47813;DHT22;34221;45.296;9.516;2023-03-01T01:27:32;6.20;76.80
47813;DHT22;34221;45.296;9.516;2023-03-01T01:27:47;6.20;76.80
47813;DHT22;34221;45.296;9.516;2023-03-01T01:28:02;6.20;76.80
47813;DHT22;34221;45.296;9.516;2023-03-01T01:28:17;6.20;77.00
47813;DHT22;34221;45.296;9.516;2023-03-01T01:28:34;6.20;76.90
47813;DHT22;34221;45.296;9.516;2023-03-01T01:28:49;6.20;76.70
47813;DHT22;34221;45.296;9.516;2023-03-01T01:29:06;6.20;76.70
47813;DHT22;34221;45.296;9.516;2023-03-01T01:29:21;6.10;76.80
47813;DHT22;34221;45.296;9.516;2023-03-01T01:29:37;6.10;76.80
47813;DHT22;34221;45.296;9.516;2023-03-01T01:29:53;6.10;76.70
47813;DHT22;34221;45.296;9.516;2023-03-01T01:30:08;6.10;77.00
47813;DHT22;34221;45.296;9.516;2023-03-01T01:30:23;6.10;76.90
47813;DHT22;34221;45.296;9.516;2023-03-01T01:30:39;6.10;76.90
47813;DHT22;34221;45.296;9.516;2023-03-01T01:30:54;6.10;77.00
47813;DHT22;34221;45.296;9.516;2023-03-01T01:31:09;6.10;77.00
47813;DHT22;34221;45.296;9.516;2023-03-01T01:31:25;6.10;77.20
47813;DHT22;34221;45.296;9.516;2023-03-01T01:31:42;6.10;77.10
47813;DHT22;34221;45.296;9.516;2023-03-01T01:31:58;6.10;77.30
47813;DHT22;34221;45.296;9.516;2023-03-01T01:32:13;6.10;77.30
47813;DHT22;34221;45.296;9.516;2023-03-01T01:32:28;6.10;77.30
47813;DHT22;34221;45.296;9.516;2023-03-01T01:32:43;6.10;77.80
47813;DHT22;34221;45.296;9.516;2023-03-01T01:32:57;6.10;77.20
47813;DHT22;34221;45.296;9.516;2023-03-01T01:33:12;6.10;77.20
47813;DHT22;34221;45.296;9.516;2023-03-01T01:33:28;6.10;77.30
47813;DHT22;34221;45.296;9.516;2023-03-01T01:33:43;6.10;77.40
47813;DHT22;34221;45.296;9.516;2023-03-01T01:33:59;6.10;77.50
47813;DHT22;34221;45.296;9.516;2023-03-01T01:34:18;6.10;77.30
47813;DHT22;34221;45.296;9.516;2023-03-01T01:34:34;6.00;77.20
47813;DHT22;34221;45.296;9.516;2023-03-01T01:35:10;6.00;77.30
47813;DHT22;34221;45.296;9.516;2023-03-01T01:35:25;6.00;77.40
47813;DHT22;34221;45.296;9.516;2023-03-01T01:35:39;6.00;77.40
47813;DHT22;34221;45.296;9.516;2023-03-01T01:35:54;6.00;77.40
47813;DHT22;34221;45.296;9.516;2023-03-01T01:36:10;6.00;77.30
47813;DHT22;34221;45.296;9.516;2023-03-01T01:36:25;6.00;77.40
47813;DHT22;34221;45.296;9.516;2023-03-01T01:36:40;6.00;77.50
47813;DHT22;34221;45.296;9.516;2023-03-01T01:36:54;6.00;77.50
47813;DHT22;34221;45.296;9.516;2023-03-01T01:37:09;6.00;77.50
47813;DHT22;34221;45.296;9.516;2023-03-01T01:37:25;6.00;77.40
47813;DHT22;34221;45.296;9.516;2023-03-01T01:37:45;6.00;77.50
47813;DHT22;34221;45.296;9.516;2023-03-01T01:38:00;5.90;77.30
47813;DHT22;34221;45.296;9.516;2023-03-01T01:38:15;5.90;77.40
47813;DHT22;34221;45.296;9.516;2023-03-01T01:38:30;5.90;77.40
47813;DHT22;34221;45.296;9.516;2023-03-01T01:38:45;5.90;77.50
47813;DHT22;34221;45.296;9.516;2023-03-01T01:39:01;5.90;77.40
47813;DHT22;34221;45.296;9.516;2023-03-01T01:39:16;5.90;77.50
47813;DHT22;34221;45.296;9.516;2023-03-01T01:39:31;5.90;77.70
47813;DHT22;34221;45.296;9.516;2023-03-01T01:39:46;5.90;77.90
47813;DHT22;34221;45.296;9.516;2023-03-01T01:40:01;5.90;77.90
47813;DHT22;34221;45.296;9.516;2023-03-01T01:40:20;5.90;77.90
47813;DHT22;34221;45.296;9.516;2023-03-01T01:40:43;5.90;77.90
47813;DHT22;34221;45.296;9.516;2023-03-01T01:41:03;5.80;77.70
47813;DHT22;34221;45.296;9.516;2023-03-01T01:41:19;5.80;77.80
47813;DHT22;34221;45.296;9.516;2023-03-01T01:41:35;5.90;77.90
47813;DHT22;34221;45.296;9.516;2023-03-01T01:41:50;5.80;77.90
47813;DHT22;34221;45.296;9.516;2023-03-01T01:42:05;5.80;78.00
47813;DHT22;34221;45.296;9.516;2023-03-01T01:42:20;5.90;77.90
47813;DHT22;34221;45.296;9.516;2023-03-01T01:42:35;5.80;77.80
47813;DHT22;34221;45.296;9.516;2023-03-01T01:42:50;5.80;77.70
47813;DHT22;34221;45.296;9.516;2023-03-01T01:43:07;5.90;77.90
47813;DHT22;34221;45.296;9.516;2023-03-01T01:43:35;5.80;77.90
47813;DHT22;34221;45.296;9.516;2023-03-01T01:44:11;5.90;77.90